sensor_id;sensor_type;location;lat;lon;timestamp;pressure;altitude;pressure_sealevel;temperature;humidity
31096;BME280;17749;51.962;8.560;2023-04-19T05:02:40;101196.88;;;5.96;100.00
31096;BME280;17749;51.962;8.560;2023-04-19T05:05:08;101189.81;;;5.90;100.00
31096;BME280;17749;51.962;8.560;2023-04-19T05:07:37;101189.81;;;5.92;100.00
31096;BME280;17749;51.962;8.560;2023-04-19T05:10:04;101191.56;;;5.91;100.00
31096;BME280;17749;51.962;8.560;2023-04-19T05:12:41;101185.44;;;5.89;100.00
31096;BME280;17749;51.962;8.560;2023-04-19T05:15:08;101189.88;;;5.84;100.00
31096;BME280;17749;51.962;8.560;2023-04-19T05:17:44;101192.50;;;5.80;100.00
31096;BME280;17749;51.962;8.560;2023-04-19T05:20:15;101197.78;;;5.81;100.00
31096;BME280;17749;51.962;8.560;2023-04-19T05:22:47;101194.28;;;5.78;100.00
31096;BME280;17749;51.962;8.560;2023-04-19T05:25:14;101187.22;;;5.75;100.00
31096;BME280;17749;51.962;8.560;2023-04-19T05:27:41;101200.44;;;5.74;100.00
31096;BME280;17749;51.962;8.560;2023-04-19T05:30:09;101197.81;;;5.70;100.00
31096;BME280;17749;51.962;8.560;2023-04-19T05:32:40;101201.34;;;5.72;100.00
31096;BME280;17749;51.962;8.560;2023-04-19T05:35:10;101205.72;;;5.74;100.00
31096;BME280;17749;51.962;8.560;2023-04-19T05:37:38;101190.78;;;5.74;100.00
31096;BME280;17749;51.962;8.560;2023-04-19T05:40:05;101186.34;;;5.76;100.00
31096;BME280;17749;51.962;8.560;2023-04-19T05:42:39;101189.84;;;5.78;100.00
31096;BME280;17749;51.962;8.560;2023-04-19T05:45:10;101189.88;;;5.80;100.00
31096;BME280;17749;51.962;8.560;2023-04-19T05:47:41;101192.50;;;5.80;100.00
31096;BME280;17749;51.962;8.560;2023-04-19T05:50:11;101190.72;;;5.85;100.00
31096;BME280;17749;51.962;8.560;2023-04-19T05:52:46;101197.78;;;5.87;100.00
31096;BME280;17749;51.962;8.560;2023-04-19T05:55:15;101193.34;;;5.91;100.00
31096;BME280;17749;51.962;8.560;2023-04-19T05:57:48;101181.03;;;5.90;100.00
31096;BME280;17749;51.962;8.560;2023-04-19T06:00:16;101183.66;;;5.95;100.00
31096;BME280;17749;51.962;8.560;2023-04-19T06:02:53;101192.47;;;5.98;100.00
31096;BME280;17749;51.962;8.560;2023-04-19T06:05:20;101187.19;;;5.98;100.00
31096;BME280;17749;51.962;8.560;2023-04-19T06:07:48;101186.28;;;6.02;100.00
31096;BME280;17749;51.962;8.560;2023-04-19T06:10:26;101182.75;;;6.08;100.00
31096;BME280;17749;51.962;8.560;2023-04-19T06:13:08;101180.94;;;6.16;100.00
31096;BME280;17749;51.962;8.560;2023-04-19T06:15:35;101183.56;;;6.24;100.00
31096;BME280;17749;51.962;8.560;2023-04-19T06:18:02;101175.56;;;6.30;100.00
31096;BME280;17749;51.962;8.560;2023-04-19T06:20:31;101185.19;;;6.46;100.00
31096;BME280;17749;51.962;8.560;2023-04-19T06:22:58;101188.63;;;6.57;100.00
31096;BME280;17749;51.962;8.560;2023-04-19T06:25:25;101179.75;;;6.68;100.00
31096;BME280;17749;51.962;8.560;2023-04-19T06:27:52;101183.22;;;6.77;100.00
31096;BME280;17749;51.962;8.560;2023-04-19T06:30:24;101179.66;;;6.80;100.00
31096;BME280;17749;51.962;8.560;2023-04-19T06:32:54;101183.97;;;6.93;100.00
31096;BME280;17749;51.962;8.560;2023-04-19T06:35:22;101182.94;;;7.10;100.00
31096;BME280;17749;51.962;8.560;2023-04-19T06:37:55;101188.13;;;7.25;100.00
31096;BME280;17749;51.962;8.560;2023-04-19T06:40:22;101189.78;;;7.35;100.00
31096;BME280;17749;51.962;8.560;2023-04-19T06:43:03;101191.41;;;7.49;100.00
31096;BME280;17749;51.962;8.560;2023-04-19T06:45:34;101184.22;;;7.63;100.00
31096;BME280;17749;51.962;8.560;2023-04-19T06:48:05;101186.66;;;7.80;100.00
31096;BME280;17749;51.962;8.560;2023-04-19T06:50:34;101182.00;;;8.02;100.00
31096;BME280;17749;51.962;8.560;2023-04-19T06:53:01;101194.28;;;8.09;100.00
31096;BME280;17749;51.962;8.560;2023-04-19T06:55:31;101197.75;;;8.14;100.00
31096;BME280;17749;51.962;8.560;2023-04-19T06:58:03;101185.25;;;8.25;100.00
31096;BME280;17749;51.962;8.560;2023-04-19T07:00:33;101183.41;;;8.27;100.00
31096;BME280;17749;51.962;8.560;2023-04-19T07:03:00;101185.09;;;8.39;100.00
31096;BME280;17749;51.962;8.560;2023-04-19T07:05:29;101188.56;;;8.44;100.00
31096;BME280;17749;51.962;8.560;2023-04-19T07:07:57;101178.75;;;8.48;100.00
31096;BME280;17749;51.962;8.560;2023-04-19T07:10:30;101179.56;;;8.53;100.00
31096;BME280;17749;51.962;8.560;2023-04-19T07:12:58;101186.56;;;8.60;100.00
31096;BME280;17749;51.962;8.560;2023-04-19T07:15:25;101181.81;;;8.81;100.00
31096;BME280;17749;51.962;8.560;2023-04-19T07:17:52;101187.72;;;8.98;100.00
31096;BME280;17749;51.962;8.560;2023-04-19T07:20:19;101187.66;;;9.01;100.00
31096;BME280;17749;51.962;8.560;2023-04-19T07:22:47;101189.31;;;9.08;100.00
31096;BME280;17749;51.962;8.560;2023-04-19T07:25:14;101183.13;;;9.08;100.00
31096;BME280;17749;51.962;8.560;2023-04-19T07:27:41;101184.88;;;9.10;100.00
31096;BME280;17749;51.962;8.560;2023-04-19T07:30:08;101178.06;;;8.92;100.00
31096;BME280;17749;51.962;8.560;2023-04-19T07:32:35;101176.22;;;8.97;100.00
31096;BME280;17749;51.962;8.560;2023-04-19T07:35:03;101181.41;;;9.07;100.00
31096;BME280;17749;51.962;8.560;2023-04-19T07:37:30;101189.13;;;9.20;100.00
31096;BME280;17749;51.962;8.560;2023-04-19T07:39:56;101177.72;;;9.14;100.00
31096;BME280;17749;51.962;8.560;2023-04-19T07:42:24;101165.09;;;9.27;100.00
31096;BME280;17749;51.962;8.560;2023-04-19T07:44:51;101168.34;;;9.42;100.00
31096;BME280;17749;51.962;8.560;2023-04-19T07:47:18;101165.59;;;9.49;99.83
31096;BME280;17749;51.962;8.560;2023-04-19T07:49:45;101161.75;;;9.63;98.28
31096;BME280;17749;51.962;8.560;2023-04-19T07:52:12;101157.28;;;9.65;97.70
31096;BME280;17749;51.962;8.560;2023-04-19T07:54:39;101159.88;;;9.69;97.36
31096;BME280;17749;51.962;8.560;2023-04-19T07:57:06;101164.25;;;9.71;96.34
31096;BME280;17749;51.962;8.560;2023-04-19T07:59:33;101159.72;;;9.78;97.22
31096;BME280;17749;51.962;8.560;2023-04-19T08:02:03;101163.97;;;9.86;95.67
31096;BME280;17749;51.962;8.560;2023-04-19T08:04:31;101166.47;;;9.94;95.57
31096;BME280;17749;51.962;8.560;2023-04-19T08:06:58;101159.78;;;10.17;96.21
31096;BME280;17749;51.962;8.560;2023-04-19T08:09:25;101161.19;;;10.35;94.08
31096;BME280;17749;51.962;8.560;2023-04-19T08:11:52;101172.50;;;10.44;93.70
31096;BME280;17749;51.962;8.560;2023-04-19T08:14:20;101173.28;;;10.49;92.65
31096;BME280;17749;51.962;8.560;2023-04-19T08:17:12;101170.84;;;10.40;91.50
31096;BME280;17749;51.962;8.560;2023-04-19T08:19:55;101170.13;;;10.32;90.88
31096;BME280;17749;51.962;8.560;2023-04-19T08:22:22;101164.78;;;10.32;91.95
31096;BME280;17749;51.962;8.560;2023-04-19T08:24:49;101167.41;;;10.35;91.46
31096;BME280;17749;51.962;8.560;2023-04-19T08:27:20;101160.22;;;10.37;92.69
31096;BME280;17749;51.962;8.560;2023-04-19T08:29:51;101148.97;;;10.24;92.63
31096;BME280;17749;51.962;8.560;2023-04-19T08:32:18;101158.47;;;10.38;91.93
31096;BME280;17749;51.962;8.560;2023-04-19T08:34:46;101148.78;;;10.34;91.78
31096;BME280;17749;51.962;8.560;2023-04-19T08:37:37;101146.44;;;10.59;94.55
31096;BME280;17749;51.962;8.560;2023-04-19T08:40:05;101154.22;;;10.68;90.46
31096;BME280;17749;51.962;8.560;2023-04-19T08:42:32;101149.50;;;10.79;88.91
31096;BME280;17749;51.962;8.560;2023-04-19T08:45:03;101144.75;;;10.92;87.49
31096;BME280;17749;51.962;8.560;2023-04-19T08:47:36;101142.81;;;10.99;85.37
31096;BME280;17749;51.962;8.560;2023-04-19T08:50:22;101146.91;;;11.12;86.49
31096;BME280;17749;51.962;8.560;2023-04-19T08:53:05;101137.38;;;11.36;86.68
31096;BME280;17749;51.962;8.560;2023-04-19T08:55:37;101132.25;;;11.61;85.01
31096;BME280;17749;51.962;8.560;2023-04-19T08:58:20;101125.53;;;11.79;81.91
31096;BME280;17749;51.962;8.560;2023-04-19T09:01:07;101121.53;;;12.23;83.03
31096;BME280;17749;51.962;8.560;2023-04-19T09:03:43;101120.03;;;12.44;80.19
31096;BME280;17749;51.962;8.560;2023-04-19T09:06:36;101121.00;;;12.42;77.55
31096;BME280;17749;51.962;8.560;2023-04-19T09:09:25;101115.91;;;12.34;75.07
31096;BME280;17749;51.962;8.560;2023-04-19T09:11:55;101103.78;;;12.22;74.88
31096;BME280;17749;51.962;8.560;2023-04-19T09:14:26;101112.19;;;12.38;75.61
31096;BME280;17749;51.962;8.560;2023-04-19T09:17:10;101105.50;;;12.53;73.36
31096;BME280;17749;51.962;8.560;2023-04-19T09:19:48;101089.97;;;12.64;72.66
31096;BME280;17749;51.962;8.560;2023-04-19T09:22:15;101092.75;;;12.61;72.99
31096;BME280;17749;51.962;8.560;2023-04-19T09:24:43;101103.00;;;12.47;72.75
31096;BME280;17749;51.962;8.560;2023-04-19T09:27:31;101099.41;;;12.48;73.30
31096;BME280;17749;51.962;8.560;2023-04-19T09:29:59;101092.03;;;12.56;73.05
31096;BME280;17749;51.962;8.560;2023-04-19T09:32:27;101089.94;;;12.66;73.19
31096;BME280;17749;51.962;8.560;2023-04-19T09:34:56;101094.91;;;12.77;73.37
31096;BME280;17749;51.962;8.560;2023-04-19T09:37:24;101079.75;;;12.77;73.41
31096;BME280;17749;51.962;8.560;2023-04-19T09:40:22;101082.31;;;12.80;72.13
31096;BME280;17749;51.962;8.560;2023-04-19T09:42:50;101076.75;;;13.13;73.27
31096;BME280;17749;51.962;8.560;2023-04-19T09:45:20;101078.97;;;13.27;72.55
31096;BME280;17749;51.962;8.560;2023-04-19T09:48:00;101075.34;;;13.53;71.39
31096;BME280;17749;51.962;8.560;2023-04-19T09:50:28;101071.22;;;13.44;68.59
31096;BME280;17749;51.962;8.560;2023-04-19T09:52:58;101080.13;;;13.18;70.25
31096;BME280;17749;51.962;8.560;2023-04-19T09:55:25;101067.03;;;13.10;70.99
31096;BME280;17749;51.962;8.560;2023-04-19T09:57:55;101072.91;;;12.95;68.45
31096;BME280;17749;51.962;8.560;2023-04-19T10:00:22;101062.94;;;13.00;70.46
31096;BME280;17749;51.962;8.560;2023-04-19T10:02:54;101058.72;;;12.93;68.47
31096;BME280;17749;51.962;8.560;2023-04-19T10:05:24;101066.81;;;13.16;67.61
31096;BME280;17749;51.962;8.560;2023-04-19T10:07:52;101059.13;;;13.32;66.26
31096;BME280;17749;51.962;8.560;2023-04-19T10:10:25;101046.50;;;13.36;66.58
31096;BME280;17749;51.962;8.560;2023-04-19T10:13:02;101055.28;;;13.14;64.56
31096;BME280;17749;51.962;8.560;2023-04-19T10:15:35;101035.81;;;13.36;65.67
31096;BME280;17749;51.962;8.560;2023-04-19T10:18:05;101039.09;;;13.68;66.85
31096;BME280;17749;51.962;8.560;2023-04-19T10:20:57;101046.63;;;14.03;63.64
31096;BME280;17749;51.962;8.560;2023-04-19T10:23:27;101034.72;;;13.89;60.96
31096;BME280;17749;51.962;8.560;2023-04-19T10:25:56;101043.78;;;13.85;60.08
31096;BME280;17749;51.962;8.560;2023-04-19T10:28:23;101036.97;;;13.99;60.22
31096;BME280;17749;51.962;8.560;2023-04-19T10:30:58;101036.47;;;14.12;60.16
31096;BME280;17749;51.962;8.560;2023-04-19T10:33:29;101024.75;;;14.14;58.91
31096;BME280;17749;51.962;8.560;2023-04-19T10:35:58;101025.50;;;13.96;58.87
31096;BME280;17749;51.962;8.560;2023-04-19T10:41:10;101031.41;;;13.82;56.15
31096;BME280;17749;51.962;8.560;2023-04-19T10:43:47;101030.84;;;13.96;57.71
31096;BME280;17749;51.962;8.560;2023-04-19T10:48:56;101023.25;;;13.85;56.67
31096;BME280;17749;51.962;8.560;2023-04-19T10:57:03;101013.91;;;13.73;54.02
31096;BME280;17749;51.962;8.560;2023-04-19T10:59:38;101014.38;;;13.83;54.89
31096;BME280;17749;51.962;8.560;2023-04-19T11:07:16;100999.84;;;14.34;54.30
31096;BME280;17749;51.962;8.560;2023-04-19T11:09:47;100978.09;;;14.20;53.10
31096;BME280;17749;51.962;8.560;2023-04-19T11:12:17;100983.44;;;14.20;53.92
31096;BME280;17749;51.962;8.560;2023-04-19T11:14:49;100985.34;;;14.18;52.36
31096;BME280;17749;51.962;8.560;2023-04-19T11:17:21;100986.22;;;14.18;53.46
31096;BME280;17749;51.962;8.560;2023-04-19T11:19:58;100975.69;;;14.14;51.56
31096;BME280;17749;51.962;8.560;2023-04-19T11:22:32;100971.81;;;14.21;51.57
31096;BME280;17749;51.962;8.560;2023-04-19T11:25:16;100972.53;;;14.46;53.28
31096;BME280;17749;51.962;8.560;2023-04-19T11:27:50;100965.41;;;14.45;51.60
31096;BME280;17749;51.962;8.560;2023-04-19T11:30:27;100964.69;;;14.20;51.72
31096;BME280;17749;51.962;8.560;2023-04-19T11:32:55;100952.13;;;14.22;52.40
31096;BME280;17749;51.962;8.560;2023-04-19T11:35:25;100954.69;;;14.45;53.08
31096;BME280;17749;51.962;8.560;2023-04-19T11:37:53;100944.97;;;14.65;53.87
31096;BME280;17749;51.962;8.560;2023-04-19T11:40:22;100945.97;;;14.83;51.94
31096;BME280;17749;51.962;8.560;2023-04-19T11:42:57;100944.84;;;14.68;52.80
31096;BME280;17749;51.962;8.560;2023-04-19T11:45:36;100935.94;;;14.67;52.69
31096;BME280;17749;51.962;8.560;2023-04-19T11:48:13;100930.22;;;14.75;52.07
31096;BME280;17749;51.962;8.560;2023-04-19T11:50:43;100940.16;;;14.53;50.92
31096;BME280;17749;51.962;8.560;2023-04-19T11:53:15;100934.41;;;14.62;52.71
31096;BME280;17749;51.962;8.560;2023-04-19T11:55:57;100934.72;;;14.54;52.36
31096;BME280;17749;51.962;8.560;2023-04-19T11:58:41;100916.41;;;14.64;52.97
31096;BME280;17749;51.962;8.560;2023-04-19T12:01:15;100926.03;;;14.47;52.08
31096;BME280;17749;51.962;8.560;2023-04-19T12:03:50;100924.59;;;14.61;53.50
31096;BME280;17749;51.962;8.560;2023-04-19T12:06:28;100905.25;;;14.54;52.86
31096;BME280;17749;51.962;8.560;2023-04-19T12:08:57;100914.81;;;14.60;52.70
31096;BME280;17749;51.962;8.560;2023-04-19T12:11:28;100910.91;;;14.67;51.85
31096;BME280;17749;51.962;8.560;2023-04-19T12:14:12;100901.53;;;14.77;54.01
31096;BME280;17749;51.962;8.560;2023-04-19T12:16:40;100895.94;;;15.02;52.04
31096;BME280;17749;51.962;8.560;2023-04-19T12:19:17;100889.91;;;15.16;54.16
31096;BME280;17749;51.962;8.560;2023-04-19T12:21:46;100890.28;;;15.08;51.71
31096;BME280;17749;51.962;8.560;2023-04-19T12:24:14;100893.19;;;15.04;51.29
31096;BME280;17749;51.962;8.560;2023-04-19T12:26:55;100891.56;;;15.00;50.78
31096;BME280;17749;51.962;8.560;2023-04-19T12:29:30;100893.13;;;14.85;49.47
31096;BME280;17749;51.962;8.560;2023-04-19T12:31:58;100881.75;;;14.80;50.14
31096;BME280;17749;51.962;8.560;2023-04-19T12:34:25;100878.19;;;14.79;49.93
31096;BME280;17749;51.962;8.560;2023-04-19T12:36:52;100879.00;;;14.81;51.10
31096;BME280;17749;51.962;8.560;2023-04-19T12:39:19;100857.22;;;14.89;50.36
31096;BME280;17749;51.962;8.560;2023-04-19T12:41:46;100844.72;;;14.88;50.90
31096;BME280;17749;51.962;8.560;2023-04-19T12:44:14;100860.69;;;14.91;48.64
31096;BME280;17749;51.962;8.560;2023-04-19T12:46:41;100852.44;;;15.15;50.09
31096;BME280;17749;51.962;8.560;2023-04-19T12:49:08;100852.50;;;15.32;49.50
31096;BME280;17749;51.962;8.560;2023-04-19T12:51:35;100855.91;;;15.36;48.46
31096;BME280;17749;51.962;8.560;2023-04-19T12:54:02;100854.75;;;15.41;49.74
31096;BME280;17749;51.962;8.560;2023-04-19T12:56:29;100849.16;;;15.46;47.50
31096;BME280;17749;51.962;8.560;2023-04-19T12:58:56;100839.78;;;15.54;48.12
31096;BME280;17749;51.962;8.560;2023-04-19T13:01:23;100842.00;;;15.27;45.58
31096;BME280;17749;51.962;8.560;2023-04-19T13:03:50;100844.03;;;15.22;48.01
31096;BME280;17749;51.962;8.560;2023-04-19T13:06:18;100831.19;;;15.10;47.01
31096;BME280;17749;51.962;8.560;2023-04-19T13:08:45;100834.94;;;15.06;47.53
31096;BME280;17749;51.962;8.560;2023-04-19T13:11:14;100833.72;;;14.94;45.76
31096;BME280;17749;51.962;8.560;2023-04-19T13:13:41;100820.88;;;15.01;48.14
31096;BME280;17749;51.962;8.560;2023-04-19T13:16:08;100812.72;;;15.04;45.57
31096;BME280;17749;51.962;8.560;2023-04-19T13:18:35;100820.63;;;15.07;46.10
31096;BME280;17749;51.962;8.560;2023-04-19T13:21:02;100815.28;;;15.24;46.76
31096;BME280;17749;51.962;8.560;2023-04-19T13:23:33;100808.03;;;15.26;45.88
31096;BME280;17749;51.962;8.560;2023-04-19T13:26:00;100809.56;;;15.13;44.59
31096;BME280;17749;51.962;8.560;2023-04-19T13:28:27;100804.22;;;14.94;46.40
31096;BME280;17749;51.962;8.560;2023-04-19T13:30:53;100783.91;;;15.07;46.37
31096;BME280;17749;51.962;8.560;2023-04-19T13:33:20;100776.31;;;15.17;46.51
31096;BME280;17749;51.962;8.560;2023-04-19T13:35:47;100775.72;;;15.10;47.34
31096;BME280;17749;51.962;8.560;2023-04-19T13:38:14;100775.59;;;14.95;46.35
31096;BME280;17749;51.962;8.560;2023-04-19T13:40:41;100782.78;;;14.94;47.32
31096;BME280;17749;51.962;8.560;2023-04-19T13:43:10;100782.13;;;14.89;46.98
31096;BME280;17749;51.962;8.560;2023-04-19T13:45:36;100773.28;;;14.87;48.14
31096;BME280;17749;51.962;8.560;2023-04-19T13:48:04;100760.34;;;14.95;49.76
31096;BME280;17749;51.962;8.560;2023-04-19T13:50:31;100761.59;;;15.07;48.01
31096;BME280;17749;51.962;8.560;2023-04-19T13:52:58;100764.50;;;15.02;47.92
31096;BME280;17749;51.962;8.560;2023-04-19T13:55:25;100766.59;;;14.96;47.21
31096;BME280;17749;51.962;8.560;2023-04-19T13:57:52;100769.06;;;14.81;48.31
31096;BME280;17749;51.962;8.560;2023-04-19T14:00:20;100762.25;;;14.55;45.66
31096;BME280;17749;51.962;8.560;2023-04-19T14:02:47;100774.63;;;14.37;46.83
31096;BME280;17749;51.962;8.560;2023-04-19T14:05:17;100761.53;;;14.11;45.97
31096;BME280;17749;51.962;8.560;2023-04-19T14:07:44;100763.25;;;14.12;46.89
31096;BME280;17749;51.962;8.560;2023-04-19T14:10:12;100731.28;;;14.09;46.25
31096;BME280;17749;51.962;8.560;2023-04-19T14:12:39;100754.56;;;14.07;47.32
31096;BME280;17749;51.962;8.560;2023-04-19T14:15:07;100770.78;;;14.03;46.63
31096;BME280;17749;51.962;8.560;2023-04-19T14:17:33;100756.13;;;13.92;46.81
31096;BME280;17749;51.962;8.560;2023-04-19T14:20:01;100748.97;;;13.92;47.29
31096;BME280;17749;51.962;8.560;2023-04-19T14:22:32;100744.41;;;13.94;47.20
31096;BME280;17749;51.962;8.560;2023-04-19T14:25:01;100750.59;;;13.96;47.29
31096;BME280;17749;51.962;8.560;2023-04-19T14:27:28;100754.69;;;13.83;46.32
31096;BME280;17749;51.962;8.560;2023-04-19T14:29:56;100744.47;;;13.72;46.23
31096;BME280;17749;51.962;8.560;2023-04-19T14:32:23;100736.75;;;13.65;47.45
31096;BME280;17749;51.962;8.560;2023-04-19T14:34:53;100738.66;;;13.63;47.76
31096;BME280;17749;51.962;8.560;2023-04-19T14:37:22;100731.16;;;13.71;47.43
31096;BME280;17749;51.962;8.560;2023-04-19T14:39:49;100723.53;;;13.82;48.00
31096;BME280;17749;51.962;8.560;2023-04-19T14:42:16;100722.38;;;13.88;48.13
31096;BME280;17749;51.962;8.560;2023-04-19T14:44:49;100727.81;;;13.66;48.84
31096;BME280;17749;51.962;8.560;2023-04-19T14:47:16;100731.41;;;13.65;49.66
31096;BME280;17749;51.962;8.560;2023-04-19T14:49:43;100721.38;;;13.49;49.02
31096;BME280;17749;51.962;8.560;2023-04-19T14:52:10;100719.75;;;13.45;49.66
31096;BME280;17749;51.962;8.560;2023-04-19T14:54:37;100721.88;;;13.37;49.29
31096;BME280;17749;51.962;8.560;2023-04-19T14:57:04;100726.97;;;13.21;49.10
31096;BME280;17749;51.962;8.560;2023-04-19T14:59:31;100718.88;;;13.23;50.28
31096;BME280;17749;51.962;8.560;2023-04-19T15:01:58;100730.72;;;13.39;50.60
31096;BME280;17749;51.962;8.560;2023-04-19T15:04:25;100719.25;;;13.57;51.18
31096;BME280;17749;51.962;8.560;2023-04-19T15:06:52;100720.84;;;13.62;50.13
31096;BME280;17749;51.962;8.560;2023-04-19T15:09:19;100731.94;;;13.52;49.26
31096;BME280;17749;51.962;8.560;2023-04-19T15:11:46;100731.13;;;13.50;51.58
31096;BME280;17749;51.962;8.560;2023-04-19T15:14:13;100721.56;;;13.45;50.28
31096;BME280;17749;51.962;8.560;2023-04-19T15:16:40;100733.72;;;13.31;50.17
31096;BME280;17749;51.962;8.560;2023-04-19T15:19:08;100739.53;;;13.19;50.38
31096;BME280;17749;51.962;8.560;2023-04-19T15:21:35;100733.44;;;13.15;50.84
31096;BME280;17749;51.962;8.560;2023-04-19T15:24:02;100727.97;;;13.19;51.84
31096;BME280;17749;51.962;8.560;2023-04-19T15:26:29;100742.25;;;13.18;52.45
31096;BME280;17749;51.962;8.560;2023-04-19T15:28:56;100738.88;;;13.12;52.73
31096;BME280;17749;51.962;8.560;2023-04-19T15:31:23;100732.81;;;13.09;52.15
31096;BME280;17749;51.962;8.560;2023-04-19T15:33:51;100727.84;;;13.00;52.17
31096;BME280;17749;51.962;8.560;2023-04-19T15:36:18;100727.34;;;12.90;51.36
31096;BME280;17749;51.962;8.560;2023-04-19T15:38:45;100729.19;;;12.88;51.56
31096;BME280;17749;51.962;8.560;2023-04-19T15:41:12;100727.81;;;12.78;51.78
31096;BME280;17749;51.962;8.560;2023-04-19T15:43:39;100722.72;;;12.71;51.52
31096;BME280;17749;51.962;8.560;2023-04-19T15:46:13;100732.34;;;12.76;51.96
31096;BME280;17749;51.962;8.560;2023-04-19T15:48:40;100723.72;;;12.91;52.21
31096;BME280;17749;51.962;8.560;2023-04-19T15:51:07;100717.19;;;12.98;51.82
31096;BME280;17749;51.962;8.560;2023-04-19T15:53:36;100723.50;;;12.97;52.06
31096;BME280;17749;51.962;8.560;2023-04-19T15:56:03;100722.00;;;12.90;53.00
31096;BME280;17749;51.962;8.560;2023-04-19T15:58:31;100731.13;;;12.84;53.01
31096;BME280;17749;51.962;8.560;2023-04-19T16:00:57;100728.06;;;12.71;53.97
31096;BME280;17749;51.962;8.560;2023-04-19T16:03:24;100743.03;;;12.76;54.47
31096;BME280;17749;51.962;8.560;2023-04-19T16:05:52;100730.59;;;12.75;53.97
31096;BME280;17749;51.962;8.560;2023-04-19T16:08:18;100739.09;;;12.62;53.96
31096;BME280;17749;51.962;8.560;2023-04-19T16:10:46;100730.16;;;12.63;53.84
31096;BME280;17749;51.962;8.560;2023-04-19T16:13:14;100735.63;;;12.60;54.04
31096;BME280;17749;51.962;8.560;2023-04-19T16:15:43;100730.38;;;12.57;53.73
31096;BME280;17749;51.962;8.560;2023-04-19T16:18:11;100729.94;;;12.46;53.81
31096;BME280;17749;51.962;8.560;2023-04-19T16:20:41;100737.94;;;12.46;54.23
31096;BME280;17749;51.962;8.560;2023-04-19T16:23:08;100734.56;;;12.41;55.50
31096;BME280;17749;51.962;8.560;2023-04-19T16:25:35;100731.19;;;12.36;54.83
31096;BME280;17749;51.962;8.560;2023-04-19T16:28:01;100732.06;;;12.36;55.11
31096;BME280;17749;51.962;8.560;2023-04-19T16:30:28;100725.75;;;12.39;55.73
31096;BME280;17749;51.962;8.560;2023-04-19T16:32:57;100722.16;;;12.40;54.84
31096;BME280;17749;51.962;8.560;2023-04-19T16:35:24;100726.81;;;12.35;55.27
31096;BME280;17749;51.962;8.560;2023-04-19T16:37:52;100728.69;;;12.31;56.23
31096;BME280;17749;51.962;8.560;2023-04-19T16:40:22;100728.31;;;12.18;55.04
31096;BME280;17749;51.962;8.560;2023-04-19T16:42:49;100732.31;;;12.05;56.82
31096;BME280;17749;51.962;8.560;2023-04-19T16:45:16;100734.41;;;11.97;56.37
31096;BME280;17749;51.962;8.560;2023-04-19T16:47:45;100732.78;;;11.93;57.54
31096;BME280;17749;51.962;8.560;2023-04-19T16:50:12;100729.50;;;11.84;57.07
31096;BME280;17749;51.962;8.560;2023-04-19T16:52:39;100724.06;;;11.88;58.08
31096;BME280;17749;51.962;8.560;2023-04-19T16:55:07;100717.78;;;11.89;57.55
31096;BME280;17749;51.962;8.560;2023-04-19T16:57:35;100717.06;;;11.83;56.41
31096;BME280;17749;51.962;8.560;2023-04-19T17:00:03;100718.72;;;11.88;57.43
31096;BME280;17749;51.962;8.560;2023-04-19T17:02:32;100712.53;;;11.87;56.04
31096;BME280;17749;51.962;8.560;2023-04-19T17:04:59;100707.13;;;11.89;56.73
31096;BME280;17749;51.962;8.560;2023-04-19T17:07:27;100701.75;;;11.90;56.15
31096;BME280;17749;51.962;8.560;2023-04-19T17:09:54;100698.28;;;11.87;56.56
31096;BME280;17749;51.962;8.560;2023-04-19T17:12:21;100708.13;;;11.84;56.87
31096;BME280;17749;51.962;8.560;2023-04-19T17:14:48;100702.72;;;11.88;57.22
31096;BME280;17749;51.962;8.560;2023-04-19T17:17:15;100699.22;;;11.84;56.40
31096;BME280;17749;51.962;8.560;2023-04-19T17:19:45;100709.13;;;11.82;57.13
31096;BME280;17749;51.962;8.560;2023-04-19T17:22:16;100712.81;;;11.78;57.92
31096;BME280;17749;51.962;8.560;2023-04-19T17:24:42;100711.50;;;11.65;56.83
31096;BME280;17749;51.962;8.560;2023-04-19T17:27:09;100709.16;;;11.55;57.21
31096;BME280;17749;51.962;8.560;2023-04-19T17:29:37;100712.88;;;11.50;58.72
31096;BME280;17749;51.962;8.560;2023-04-19T17:32:05;100715.06;;;11.38;58.30
31096;BME280;17749;51.962;8.560;2023-04-19T17:34:32;100717.94;;;11.32;59.73
31096;BME280;17749;51.962;8.560;2023-04-19T17:37:02;100709.22;;;11.27;59.40
31096;BME280;17749;51.962;8.560;2023-04-19T17:39:29;100707.66;;;11.20;59.46
31096;BME280;17749;51.962;8.560;2023-04-19T17:41:56;100703.47;;;11.13;59.28
31096;BME280;17749;51.962;8.560;2023-04-19T17:44:23;100714.13;;;11.13;60.21
31096;BME280;17749;51.962;8.560;2023-04-19T17:46:50;100712.59;;;11.06;61.28
31096;BME280;17749;51.962;8.560;2023-04-19T17:49:18;100716.06;;;11.08;61.39
31096;BME280;17749;51.962;8.560;2023-04-19T17:51:46;100707.44;;;11.00;61.47
31096;BME280;17749;51.962;8.560;2023-04-19T17:54:14;100711.03;;;10.99;61.26
31096;BME280;17749;51.962;8.560;2023-04-19T17:56:42;100716.56;;;10.92;61.88
31096;BME280;17749;51.962;8.560;2023-04-19T17:59:09;100715.78;;;10.89;62.50
31096;BME280;17749;51.962;8.560;2023-04-19T18:01:36;100713.34;;;10.81;62.06
31096;BME280;17749;51.962;8.560;2023-04-19T18:04:03;100706.41;;;10.77;62.36
31096;BME280;17749;51.962;8.560;2023-04-19T18:06:31;100715.50;;;10.70;62.43
31096;BME280;17749;51.962;8.560;2023-04-19T18:08:58;100717.44;;;10.65;63.32
31096;BME280;17749;51.962;8.560;2023-04-19T18:11:26;100711.41;;;10.58;62.01
31096;BME280;17749;51.962;8.560;2023-04-19T18:13:55;100714.22;;;10.53;62.57
31096;BME280;17749;51.962;8.560;2023-04-19T18:16:22;100719.59;;;10.52;61.33
31096;BME280;17749;51.962;8.560;2023-04-19T18:18:49;100721.59;;;10.45;61.43
31096;BME280;17749;51.962;8.560;2023-04-19T18:21:17;100724.25;;;10.45;62.03